Chauncey, Illinois
Current Conditions -  °F | °C
As of 9:53 PM on Saturday 24 Jan 2015 (Local Time) from KLWV Reporting Station
Clear Clear  
Wind Chill: 30°   Ceiling: Unl
Heat Index: 35°   Visibility: 10mi
Dew Point: 31°   Wind: 6mph
Humidity: 85%   Direction: 200°SSW
Pressure: 29.78"   Gusts: NA
Location:  38.793°N, 87.8326°W
Report Text: KLWV 250353Z AUTO 20005KT 10SM CLR 02/M01 A2978 RMK AO2 SLP086 T00171006
Loading
Personal Weather Stations






























Interactive Weather Map New forecast layout! Learn more

10-Day Weather Forecast

Advertisements
Track Severe Weather on mobile